Terminal Aerodrome Forecast
Issued by NWS

Home | Current Version | Previous Version | Text Only | Print | Product List | Glossary On
Versions: 1 2 3 4 5 6 7 8 9 10 11 12 13 14 15 16 17 18 19 20 21 22 23 24 25 26
000
FTUS45 KGJT 012322
TAFTEX
TAF
KTEX 012322Z 0200/0224 28005KT P6SM VCTS SCT060 BKN090CB
      TEMPO 0200/0202 VRB10G20KT TSRA BKN060CB
     FM020300 12003KT P6SM VCSH SCT070 BKN100
     FM021000 00000KT P6SM SCT120
     FM021800 28006KT P6SM VCTS SCT080CB BKN110=

USA.gov is the U.S. government's official web portal to all federal, state and local government web resources and services.